createdAt,value
2022-09-26T00:01:12.195Z,79.13
2022-09-26T00:03:39.627Z,78.81
2022-09-26T00:06:08.572Z,79.07
2022-09-26T00:08:37.308Z,78.75
2022-09-26T00:11:07.548Z,79.20
2022-09-26T00:13:36.799Z,79.02
2022-09-26T00:16:04.398Z,79.21
2022-09-26T00:18:31.178Z,78.77
2022-09-26T00:21:09.043Z,78.17
2022-09-26T00:23:36.101Z,79.08
2022-09-26T00:26:03.963Z,78.93
2022-09-26T00:28:30.918Z,79.56
2022-09-26T00:30:57.668Z,79.80
2022-09-26T00:33:24.397Z,80.19
2022-09-26T00:35:52.218Z,80.04
2022-09-26T00:38:19.309Z,80.31
2022-09-26T00:40:47.238Z,80.63
2022-09-26T00:43:33.538Z,80.32
2022-09-26T00:46:40.799Z,80.28
2022-09-26T00:49:21.741Z,80.36
2022-09-26T00:51:58.791Z,80.54
2022-09-26T00:54:28.298Z,80.78
2022-09-26T00:56:58.576Z,80.99
2022-09-26T00:59:39.115Z,80.57
2022-09-26T01:02:06.029Z,79.56
2022-09-26T01:04:38.146Z,79.07
2022-09-26T01:07:10.609Z,78.33
2022-09-26T01:09:39.327Z,78.50
2022-09-26T01:12:08.565Z,79.13
2022-09-26T01:14:37.664Z,79.81
2022-09-26T01:17:05.305Z,80.03
2022-09-26T01:20:08.055Z,80.01
2022-09-26T01:22:43.704Z,79.84
2022-09-26T01:25:38.635Z,79.73
2022-09-26T01:28:31.460Z,80.01
2022-09-26T01:31:40.207Z,80.68
2022-09-26T01:34:32.019Z,80.93
2022-09-26T01:37:23.603Z,81.02
2022-09-26T01:40:02.687Z,80.85
2022-09-26T01:43:00.067Z,80.60
2022-09-26T01:45:36.076Z,80.66
2022-09-26T01:48:17.136Z,80.23
2022-09-26T01:50:50.271Z,80.96
2022-09-26T01:53:42.793Z,80.93
2022-09-26T01:56:15.303Z,80.63
2022-09-26T01:58:47.693Z,80.69
2022-09-26T02:01:15.658Z,81.02
2022-09-26T02:03:58.851Z,80.68
2022-09-26T02:07:04.517Z,80.55
2022-09-26T02:09:37.789Z,80.84
2022-09-26T02:12:08.937Z,81.36
2022-09-26T02:14:41.860Z,81.49
2022-09-26T02:17:13.057Z,81.31
2022-09-26T02:19:59.046Z,81.04
2022-09-26T02:22:34.361Z,81.58
2022-09-26T02:25:02.799Z,81.78
2022-09-26T02:27:29.607Z,81.82
2022-09-26T02:29:57.610Z,82.12
2022-09-26T02:32:29.247Z,80.95
2022-09-26T02:34:56.850Z,80.34
2022-09-26T02:37:25.479Z,80.13
2022-09-26T02:39:53.472Z,80.87
2022-09-26T02:42:24.619Z,81.00
2022-09-26T02:44:57.046Z,81.16
2022-09-26T02:47:44.868Z,81.35
2022-09-26T02:50:25.510Z,81.45
2022-09-26T02:53:29.828Z,81.29
2022-09-26T02:56:06.307Z,81.76
2022-09-26T02:58:51.180Z,81.29
2022-09-26T03:01:31.466Z,81.43
2022-09-26T03:04:14.904Z,81.32
2022-09-26T03:06:45.326Z,81.73
2022-09-26T03:09:13.193Z,81.45
2022-09-26T03:11:41.965Z,81.44
2022-09-26T03:14:09.992Z,81.38
2022-09-26T03:16:42.299Z,81.25
2022-09-26T03:19:11.953Z,81.05
2022-09-26T03:21:38.551Z,81.72
2022-09-26T03:24:05.304Z,81.89
2022-09-26T03:26:33.229Z,81.32
2022-09-26T03:29:00.084Z,81.00
2022-09-26T03:31:27.282Z,81.18
2022-09-26T03:33:54.047Z,80.85
2022-09-26T03:36:24.250Z,80.78
2022-09-26T03:38:50.851Z,81.24
2022-09-26T03:41:17.402Z,80.75
2022-09-26T03:43:44.055Z,81.46
2022-09-26T03:46:12.312Z,81.39
2022-09-26T03:48:39.479Z,81.67
2022-09-26T03:51:09.297Z,81.20
2022-09-26T03:53:38.417Z,81.13
2022-09-26T03:56:07.446Z,81.34
2022-09-26T03:58:34.561Z,81.49
2022-09-26T04:01:05.799Z,81.49
2022-09-26T04:03:34.102Z,81.53
2022-09-26T04:06:00.881Z,81.80
2022-09-26T04:08:27.956Z,81.23
2022-09-26T04:11:01.306Z,81.46
2022-09-26T04:13:50.009Z,81.15
2022-09-26T04:16:14.442Z,80.81
2022-09-26T04:18:41.119Z,80.64
2022-09-26T04:21:10.281Z,81.11
2022-09-26T04:23:39.798Z,81.13
2022-09-26T04:26:13.298Z,81.49
2022-09-26T04:28:40.934Z,82.10
2022-09-26T04:31:10.579Z,81.71
2022-09-26T04:33:39.251Z,81.73
2022-09-26T04:36:09.243Z,81.36
2022-09-26T04:38:36.132Z,81.88
2022-09-26T04:41:08.263Z,81.44
2022-09-26T04:43:35.343Z,81.73
2022-09-26T04:46:06.139Z,81.85
2022-09-26T04:48:32.821Z,81.61
2022-09-26T04:50:59.455Z,81.82
2022-09-26T04:53:26.524Z,81.58
2022-09-26T04:55:54.368Z,81.62
2022-09-26T04:58:21.598Z,81.58
2022-09-26T05:00:49.705Z,81.23
2022-09-26T05:03:17.414Z,81.17
2022-09-26T05:05:47.267Z,81.27
2022-09-26T05:08:17.280Z,80.85
2022-09-26T05:10:44.333Z,80.26
2022-09-26T05:13:11.008Z,80.01
2022-09-26T05:15:39.998Z,79.75
2022-09-26T05:18:08.463Z,80.45
2022-09-26T05:20:35.923Z,80.74
2022-09-26T05:23:03.710Z,80.88
2022-09-26T05:25:55.514Z,80.61
2022-09-26T05:28:22.347Z,81.08
2022-09-26T05:30:50.365Z,81.07
2022-09-26T05:33:19.909Z,80.97
2022-09-26T05:35:56.328Z,81.32
2022-09-26T05:38:22.961Z,81.35
2022-09-26T05:40:56.499Z,80.67
2022-09-26T05:43:29.013Z,80.90
2022-09-26T05:46:04.146Z,80.44
2022-09-26T05:48:32.449Z,80.37
2022-09-26T05:51:13.669Z,79.77
2022-09-26T05:53:41.760Z,79.67
2022-09-26T05:56:09.521Z,79.18
2022-09-26T05:58:38.298Z,78.39
2022-09-26T06:01:16.836Z,78.21
2022-09-26T06:03:45.083Z,78.91
2022-09-26T06:06:14.174Z,78.20
2022-09-26T06:08:41.438Z,77.66
2022-09-26T06:11:16.596Z,77.04
2022-09-26T06:13:45.815Z,76.95
2022-09-26T06:16:16.719Z,76.75
2022-09-26T06:18:43.280Z,77.58
2022-09-26T06:21:11.642Z,77.27
2022-09-26T06:23:38.479Z,77.15
2022-09-26T06:26:08.401Z,77.26
2022-09-26T06:28:39.013Z,76.27
2022-09-26T06:31:15.198Z,75.91
2022-09-26T06:33:41.810Z,75.31
2022-09-26T06:36:11.071Z,75.51
2022-09-26T06:38:38.415Z,75.54
2022-09-26T06:41:07.413Z,75.34
2022-09-26T06:43:34.250Z,75.78
2022-09-26T06:46:01.065Z,75.49
2022-09-26T06:48:27.762Z,75.35
2022-09-26T06:50:57.113Z,75.06
2022-09-26T06:53:24.017Z,74.84
2022-09-26T06:55:50.691Z,74.70
2022-09-26T06:58:17.788Z,74.40
2022-09-26T07:00:44.727Z,74.16
2022-09-26T07:03:13.524Z,73.69
2022-09-26T07:05:40.085Z,73.87
2022-09-26T07:08:07.064Z,74.47
2022-09-26T07:10:37.653Z,75.02
2022-09-26T07:13:09.498Z,74.38
2022-09-26T07:15:37.141Z,73.95
2022-09-26T07:18:06.537Z,73.52
2022-09-26T07:20:36.598Z,73.00
2022-09-26T07:23:05.403Z,73.11
2022-09-26T07:25:33.434Z,72.89
2022-09-26T07:28:00.980Z,71.31
2022-09-26T07:30:28.392Z,72.10
2022-09-26T07:33:03.148Z,71.91
2022-09-26T07:35:31.282Z,73.30
2022-09-26T07:37:59.480Z,72.41
2022-09-26T07:40:27.393Z,72.31
2022-09-26T07:43:15.693Z,71.73
2022-09-26T07:46:03.864Z,69.94
2022-09-26T07:48:48.907Z,70.16
2022-09-26T07:51:16.270Z,69.94
2022-09-26T07:53:42.869Z,69.67
2022-09-26T07:56:12.810Z,69.61
2022-09-26T07:58:45.658Z,70.01
2022-09-26T08:01:14.640Z,69.77
2022-09-26T08:03:43.226Z,69.66
2022-09-26T08:06:12.377Z,69.29
2022-09-26T08:08:41.476Z,68.97
2022-09-26T08:11:16.393Z,69.54
2022-09-26T08:13:43.724Z,69.38
2022-09-26T08:16:11.740Z,68.57
2022-09-26T08:18:39.867Z,68.42
2022-09-26T08:21:07.120Z,68.32
2022-09-26T08:23:34.258Z,68.19
2022-09-26T08:26:06.862Z,68.77
2022-09-26T08:28:35.564Z,68.35
2022-09-26T08:31:05.051Z,68.16
2022-09-26T08:33:37.192Z,68.05
2022-09-26T08:36:16.041Z,68.03
2022-09-26T08:38:42.873Z,68.01
2022-09-26T08:41:32.865Z,68.17
2022-09-26T08:44:24.134Z,68.62
2022-09-26T08:47:17.923Z,68.65
2022-09-26T08:50:22.149Z,67.87
2022-09-26T08:53:05.734Z,67.65
2022-09-26T08:55:41.861Z,67.69
2022-09-26T08:58:17.374Z,67.09
2022-09-26T09:00:44.729Z,67.06
2022-09-26T09:03:31.099Z,66.24
2022-09-26T09:06:05.810Z,66.73
2022-09-26T09:08:44.370Z,66.68
2022-09-26T09:11:42.105Z,66.77
2022-09-26T09:14:14.928Z,65.81
2022-09-26T09:16:51.545Z,65.54
2022-09-26T09:20:00.991Z,64.32
2022-09-26T09:23:01.313Z,64.51
2022-09-26T09:25:35.483Z,64.88
2022-09-26T09:28:39.911Z,64.30
2022-09-26T09:31:12.414Z,62.81
2022-09-26T09:33:44.154Z,62.66
2022-09-26T09:36:17.441Z,63.16
2022-09-26T09:38:46.984Z,62.45
2022-09-26T09:41:19.271Z,61.25
2022-09-26T09:43:48.930Z,60.82
2022-09-26T09:46:25.147Z,60.74
2022-09-26T09:49:00.281Z,60.84
2022-09-26T09:51:42.066Z,59.14
2022-09-26T09:54:27.413Z,58.70
2022-09-26T09:57:36.645Z,58.88
2022-09-26T10:00:16.275Z,58.41
2022-09-26T10:02:56.605Z,58.75
2022-09-26T10:05:25.394Z,58.86
2022-09-26T10:07:58.460Z,58.81
2022-09-26T10:10:39.757Z,57.87
2022-09-26T10:13:11.140Z,57.90
2022-09-26T10:16:05.660Z,57.28
2022-09-26T10:18:33.748Z,57.24
2022-09-26T10:21:16.227Z,56.05
2022-09-26T10:23:46.931Z,57.23
2022-09-26T10:26:13.989Z,56.88
2022-09-26T10:28:58.017Z,55.79
2022-09-26T10:31:31.475Z,57.08
2022-09-26T10:34:06.215Z,56.64
2022-09-26T10:36:36.850Z,57.29
2022-09-26T10:39:40.032Z,56.31
2022-09-26T10:42:15.906Z,57.26
2022-09-26T10:44:43.176Z,56.49
2022-09-26T10:47:16.838Z,56.29
2022-09-26T10:49:59.083Z,55.59
2022-09-26T10:52:40.089Z,55.69
2022-09-26T10:55:13.135Z,55.47
2022-09-26T10:57:45.695Z,54.98
2022-09-26T11:00:36.778Z,53.64
2022-09-26T11:03:05.928Z,53.35
2022-09-26T11:05:56.631Z,52.14
2022-09-26T11:08:35.007Z,51.68
2022-09-26T11:11:04.823Z,51.66
2022-09-26T11:14:08.421Z,51.58
2022-09-26T11:16:50.971Z,51.17
2022-09-26T11:19:29.850Z,50.90
2022-09-26T11:22:20.093Z,51.23
2022-09-26T11:24:54.888Z,50.04
2022-09-26T11:27:34.514Z,49.48
2022-09-26T11:30:09.316Z,49.51
2022-09-26T11:32:41.018Z,49.71
2022-09-26T11:35:29.609Z,48.73
2022-09-26T11:38:08.426Z,49.30
2022-09-26T11:40:47.223Z,48.75
2022-09-26T11:43:35.875Z,49.23
2022-09-26T11:46:34.668Z,48.91
2022-09-26T11:49:38.394Z,48.61
2022-09-26T11:52:13.089Z,48.94
2022-09-26T11:54:58.517Z,48.69
2022-09-26T11:57:34.849Z,49.64
2022-09-26T12:00:07.361Z,49.96
2022-09-26T12:02:47.399Z,50.86
2022-09-26T12:05:38.097Z,51.31
2022-09-26T12:08:07.662Z,51.64
2022-09-26T12:10:47.016Z,51.40
2022-09-26T12:13:22.622Z,50.88
2022-09-26T12:16:02.559Z,52.14
2022-09-26T12:18:43.580Z,52.01
2022-09-26T12:21:31.960Z,52.08
2022-09-26T12:24:27.353Z,51.95
2022-09-26T12:27:03.068Z,52.33
2022-09-26T12:29:53.832Z,53.25
2022-09-26T12:32:38.783Z,53.49
2022-09-26T12:35:29.182Z,53.65
2022-09-26T12:38:17.702Z,54.08
2022-09-26T12:41:14.415Z,53.93
2022-09-26T12:44:03.227Z,53.78
2022-09-26T12:46:51.910Z,54.23
2022-09-26T12:49:27.823Z,54.41
2022-09-26T12:52:16.307Z,54.49
2022-09-26T12:54:54.888Z,55.05
2022-09-26T12:57:36.036Z,55.25
2022-09-26T13:00:11.734Z,55.04
2022-09-26T13:02:51.187Z,54.78
2022-09-26T13:05:30.617Z,54.78
2022-09-26T13:08:46.143Z,55.29
2022-09-26T13:11:34.141Z,54.94
2022-09-26T13:14:06.190Z,55.37
2022-09-26T13:16:41.040Z,55.46
2022-09-26T13:19:21.860Z,55.54
2022-09-26T13:21:54.761Z,55.68
2022-09-26T13:24:34.621Z,55.33
2022-09-26T13:27:13.936Z,54.97
2022-09-26T13:29:46.272Z,55.50
2022-09-26T13:32:26.824Z,55.50
2022-09-26T13:35:00.888Z,56.17
2022-09-26T13:37:42.602Z,56.00
2022-09-26T13:40:37.985Z,55.46
2022-09-26T13:43:33.527Z,56.25
2022-09-26T13:46:27.171Z,56.43
2022-09-26T13:49:18.830Z,57.13
2022-09-26T13:51:58.282Z,57.15
2022-09-26T13:54:46.955Z,57.41
2022-09-26T13:57:35.191Z,57.09
2022-09-26T14:00:30.258Z,57.16
2022-09-26T14:03:19.563Z,57.27
2022-09-26T14:05:49.966Z,57.77
2022-09-26T14:08:44.653Z,57.48
2022-09-26T14:11:24.568Z,57.33
2022-09-26T14:14:19.422Z,57.65
2022-09-26T14:16:57.546Z,57.50
2022-09-26T14:19:33.172Z,57.73
2022-09-26T14:22:05.435Z,58.31
2022-09-26T14:24:41.820Z,58.37
2022-09-26T14:27:11.584Z,58.22
2022-09-26T14:29:38.216Z,58.37
2022-09-26T14:32:08.772Z,58.68
2022-09-26T14:34:35.434Z,58.38
2022-09-26T14:37:05.475Z,58.29
2022-09-26T14:39:38.959Z,58.07
2022-09-26T14:42:18.867Z,58.36
2022-09-26T14:44:57.803Z,58.15
2022-09-26T14:47:27.962Z,58.08
2022-09-26T14:50:13.971Z,58.28
2022-09-26T14:52:51.348Z,57.83
2022-09-26T14:55:19.304Z,57.67
2022-09-26T14:57:51.697Z,57.81
2022-09-26T15:00:43.084Z,59.28
2022-09-26T15:03:16.555Z,58.61
2022-09-26T15:05:44.757Z,58.86
2022-09-26T15:08:25.527Z,58.84
2022-09-26T15:10:56.010Z,58.92
2022-09-26T15:13:25.363Z,59.23
2022-09-26T15:16:09.963Z,59.62
2022-09-26T15:18:57.310Z,59.71
2022-09-26T15:21:41.023Z,59.74
2022-09-26T15:24:37.907Z,59.89
2022-09-26T15:27:20.426Z,59.42
2022-09-26T15:29:54.774Z,59.10
2022-09-26T15:32:32.457Z,58.75
2022-09-26T15:35:01.857Z,58.63
2022-09-26T15:37:34.941Z,57.66
2022-09-26T15:40:13.660Z,57.58
2022-09-26T15:42:58.405Z,58.33
2022-09-26T15:45:33.775Z,58.19
2022-09-26T15:48:27.898Z,56.26
2022-09-26T15:51:25.602Z,56.96
2022-09-26T15:54:09.360Z,57.69
2022-09-26T15:56:46.228Z,57.97
2022-09-26T15:59:31.644Z,56.62
2022-09-26T16:01:59.886Z,54.44
2022-09-26T16:04:29.399Z,52.20
2022-09-26T16:07:03.407Z,49.86
2022-09-26T16:09:32.284Z,49.67
2022-09-26T16:12:09.335Z,49.79
2022-09-26T16:15:05.099Z,48.35
2022-09-26T16:17:38.617Z,50.21
2022-09-26T16:20:29.930Z,48.19
2022-09-26T16:23:03.309Z,49.14
2022-09-26T16:25:52.798Z,47.88
2022-09-26T16:28:23.060Z,48.72
2022-09-26T16:30:58.681Z,47.63
2022-09-26T16:33:27.611Z,48.14
2022-09-26T16:35:54.654Z,48.33
2022-09-26T16:38:34.093Z,47.39
2022-09-26T16:41:48.871Z,48.99
2022-09-26T16:44:41.097Z,48.42
2022-09-26T16:47:30.501Z,48.06
2022-09-26T16:49:57.479Z,48.58
2022-09-26T16:52:32.841Z,49.44
2022-09-26T16:55:01.644Z,48.91
2022-09-26T16:57:35.348Z,47.87
2022-09-26T17:02:52.767Z,47.45
2022-09-26T17:05:22.829Z,47.37
2022-09-26T17:07:51.229Z,47.22
2022-09-26T17:10:21.115Z,47.66
2022-09-26T17:12:51.329Z,49.15
2022-09-26T17:15:23.887Z,49.44
2022-09-26T17:17:53.629Z,49.73
2022-09-26T17:20:23.939Z,50.34
2022-09-26T17:22:51.197Z,49.28
2022-09-26T17:25:18.799Z,49.61
2022-09-26T17:27:49.277Z,49.01
2022-09-26T17:30:19.146Z,49.44
2022-09-26T17:32:51.152Z,48.80
2022-09-26T17:35:25.860Z,48.68
2022-09-26T17:37:53.245Z,49.38
2022-09-26T17:40:24.322Z,49.33
2022-09-26T17:42:55.533Z,48.64
2022-09-26T17:45:28.631Z,47.31
2022-09-26T17:48:05.281Z,46.38
2022-09-26T17:50:33.481Z,48.33
2022-09-26T17:53:02.256Z,48.90
2022-09-26T17:55:31.008Z,47.55
2022-09-26T17:57:58.533Z,48.07
2022-09-26T18:00:27.096Z,48.74
2022-09-26T18:03:01.303Z,49.35
2022-09-26T18:05:34.486Z,50.55
2022-09-26T18:08:07.947Z,50.09
2022-09-26T18:10:35.581Z,50.80
2022-09-26T18:13:13.189Z,49.29
2022-09-26T18:15:40.302Z,49.91
2022-09-26T18:18:16.978Z,47.66
2022-09-26T18:20:45.463Z,47.29
2022-09-26T18:23:49.850Z,48.91
2022-09-26T18:26:30.800Z,49.80
2022-09-26T18:28:59.126Z,49.41
2022-09-26T18:31:31.595Z,48.92
2022-09-26T18:33:59.732Z,48.92
2022-09-26T18:36:29.679Z,48.63
2022-09-26T18:38:56.490Z,48.80
2022-09-26T18:41:26.541Z,47.82
2022-09-26T18:43:55.784Z,47.64
2022-09-26T18:46:25.415Z,48.06
2022-09-26T18:48:58.353Z,46.43
2022-09-26T18:51:26.654Z,47.32
2022-09-26T18:53:53.725Z,47.27
2022-09-26T18:56:38.951Z,47.71
2022-09-26T18:59:05.702Z,48.27
2022-09-26T19:01:35.361Z,48.16
2022-09-26T19:04:05.805Z,46.70
2022-09-26T19:06:37.353Z,46.27
2022-09-26T19:09:21.548Z,45.74
2022-09-26T19:11:48.651Z,46.61
2022-09-26T19:14:17.265Z,46.49
2022-09-26T19:16:45.567Z,47.13
2022-09-26T19:19:13.066Z,46.77
2022-09-26T19:21:42.885Z,47.34
2022-09-26T19:24:27.037Z,47.19
2022-09-26T19:26:57.458Z,47.17
2022-09-26T19:29:32.700Z,47.64
2022-09-26T19:32:00.087Z,47.68
2022-09-26T19:34:32.350Z,47.35
2022-09-26T19:37:03.234Z,46.97
2022-09-26T19:39:30.346Z,47.19
2022-09-26T19:41:57.097Z,47.66
2022-09-26T19:44:24.481Z,46.91
2022-09-26T19:46:51.546Z,46.68
2022-09-26T19:49:19.871Z,46.43
2022-09-26T19:51:47.294Z,47.38
2022-09-26T19:54:17.715Z,47.68
2022-09-26T19:56:45.792Z,47.85
2022-09-26T19:59:14.436Z,46.85
2022-09-26T20:01:42.974Z,47.30
2022-09-26T20:04:19.555Z,46.24
2022-09-26T20:06:47.749Z,46.27
2022-09-26T20:09:17.836Z,46.23
2022-09-26T20:11:45.203Z,46.52
2022-09-26T20:14:23.914Z,46.71
2022-09-26T20:16:52.224Z,47.04
2022-09-26T20:19:25.989Z,47.34
2022-09-26T20:21:53.209Z,48.12
2022-09-26T20:24:20.131Z,49.01
2022-09-26T20:26:48.176Z,48.33
2022-09-26T20:29:16.519Z,48.48
2022-09-26T20:31:43.711Z,48.65
2022-09-26T20:34:11.657Z,48.62
2022-09-26T20:36:42.164Z,48.75
2022-09-26T20:39:15.638Z,48.62
2022-09-26T20:41:43.937Z,48.17
2022-09-26T20:44:18.503Z,49.12
2022-09-26T20:46:54.033Z,48.59
2022-09-26T20:49:46.153Z,48.26
2022-09-26T20:52:20.848Z,48.86
2022-09-26T20:54:47.920Z,48.86
2022-09-26T20:57:19.757Z,49.27
2022-09-26T20:59:47.310Z,49.39
2022-09-26T21:02:26.425Z,48.98
2022-09-26T21:04:54.001Z,49.56
2022-09-26T21:07:22.686Z,49.51
2022-09-26T21:09:50.515Z,49.40
2022-09-26T21:12:18.522Z,49.34
2022-09-26T21:14:46.680Z,49.15
2022-09-26T21:17:28.712Z,48.98
2022-09-26T21:19:56.797Z,49.03
2022-09-26T21:22:26.829Z,49.44
2022-09-26T21:24:54.602Z,49.49
2022-09-26T21:27:21.363Z,49.54
2022-09-26T21:29:48.110Z,50.13
2022-09-26T21:32:19.525Z,50.39
2022-09-26T21:35:00.563Z,50.39
2022-09-26T21:37:27.559Z,50.33
2022-09-26T21:39:54.547Z,51.07
2022-09-26T21:42:23.073Z,51.05
2022-09-26T21:45:00.321Z,51.30
2022-09-26T21:47:28.097Z,51.39
2022-09-26T21:49:54.896Z,51.32
2022-09-26T21:52:46.511Z,51.15
2022-09-26T21:55:20.377Z,51.37
2022-09-26T21:57:49.232Z,50.96
2022-09-26T22:00:16.291Z,50.68
2022-09-26T22:02:43.034Z,50.59
2022-09-26T22:05:11.783Z,51.02
2022-09-26T22:07:39.021Z,51.39
2022-09-26T22:10:06.839Z,52.01
2022-09-26T22:12:34.351Z,52.24
2022-09-26T22:15:01.452Z,51.96
2022-09-26T22:17:28.159Z,52.48
2022-09-26T22:19:54.962Z,52.26
2022-09-26T22:22:21.708Z,52.34
2022-09-26T22:24:48.486Z,52.77
2022-09-26T22:27:15.288Z,53.61
2022-09-26T22:29:42.052Z,53.56
2022-09-26T22:32:09.066Z,53.13
2022-09-26T22:34:35.751Z,53.50
2022-09-26T22:37:02.486Z,54.21
2022-09-26T22:39:29.161Z,55.31
2022-09-26T22:41:55.830Z,55.34
2022-09-26T22:44:22.507Z,54.45
2022-09-26T22:46:49.224Z,54.45
2022-09-26T22:49:16.656Z,55.18
2022-09-26T22:51:43.299Z,55.79
2022-09-26T22:54:10.062Z,56.33
2022-09-26T22:56:36.775Z,54.62
2022-09-26T22:59:04.040Z,55.19
2022-09-26T23:01:30.834Z,54.08
2022-09-26T23:03:58.468Z,54.65
2022-09-26T23:06:25.474Z,54.91
2022-09-26T23:08:52.423Z,55.12
2022-09-26T23:11:20.144Z,54.51
2022-09-26T23:13:47.098Z,55.08
2022-09-26T23:16:17.319Z,54.85
2022-09-26T23:18:44.921Z,53.56
2022-09-26T23:21:20.496Z,54.64
2022-09-26T23:23:49.966Z,55.71
2022-09-26T23:26:23.415Z,55.71
2022-09-26T23:28:51.551Z,56.32
2022-09-26T23:31:18.657Z,56.64
2022-09-26T23:33:45.520Z,57.03
2022-09-26T23:36:12.492Z,57.09
2022-09-26T23:38:40.480Z,57.11
2022-09-26T23:41:09.850Z,57.52
2022-09-26T23:43:36.818Z,57.89
2022-09-26T23:46:04.320Z,57.98
2022-09-26T23:48:31.175Z,57.46
2022-09-26T23:50:58.289Z,56.96
2022-09-26T23:53:25.317Z,56.80
2022-09-26T23:55:52.279Z,56.81
2022-09-26T23:58:19.352Z,58.05
